createdAt,value
2023-01-06T00:01:14.956Z,4.57
2023-01-06T00:03:42.811Z,4.07
2023-01-06T00:06:12.753Z,4.07
2023-01-06T00:08:40.527Z,4.10
2023-01-06T00:11:09.155Z,4.30
2023-01-06T00:13:36.936Z,6.87
2023-01-06T00:16:06.243Z,5.10
2023-01-06T00:18:35.372Z,5.90
2023-01-06T00:21:03.557Z,7.13
2023-01-06T00:23:31.222Z,6.67
2023-01-06T00:25:59.030Z,7.43
2023-01-06T00:28:26.678Z,6.20
2023-01-06T00:30:54.345Z,9.83
2023-01-06T00:33:22.322Z,8.17
2023-01-06T00:35:51.416Z,8.60
2023-01-06T00:38:20.083Z,9.60
2023-01-06T00:40:48.342Z,10.63
2023-01-06T00:43:16.090Z,10.67
2023-01-06T00:45:43.827Z,11.53
2023-01-06T00:48:11.460Z,10.90
2023-01-06T00:50:39.055Z,10.83
2023-01-06T00:53:08.217Z,13.10
2023-01-06T00:55:36.439Z,11.27
2023-01-06T00:58:04.029Z,10.80
2023-01-06T01:00:31.898Z,11.90
2023-01-06T01:03:00.306Z,10.80
2023-01-06T01:05:27.985Z,12.20
2023-01-06T01:07:55.927Z,12.93
2023-01-06T01:10:24.941Z,10.77
2023-01-06T01:12:53.957Z,11.13
2023-01-06T01:15:22.452Z,11.80
2023-01-06T01:17:50.052Z,11.77
2023-01-06T01:20:17.710Z,10.97
2023-01-06T01:22:45.294Z,11.70
2023-01-06T01:25:12.889Z,12.50
2023-01-06T01:27:41.879Z,10.70
2023-01-06T01:30:10.491Z,10.80
2023-01-06T01:32:38.072Z,12.00
2023-01-06T01:35:06.281Z,10.43
2023-01-06T01:37:33.860Z,11.90
2023-01-06T01:40:01.487Z,10.20
2023-01-06T01:42:29.121Z,10.67
2023-01-06T01:45:01.343Z,10.90
2023-01-06T01:47:37.198Z,10.50
2023-01-06T01:50:09.385Z,10.53
2023-01-06T01:52:37.270Z,10.97
2023-01-06T01:55:06.599Z,10.83
2023-01-06T01:57:37.597Z,10.50
2023-01-06T02:00:09.983Z,11.00
2023-01-06T02:02:44.708Z,11.27
2023-01-06T02:05:15.286Z,10.50
2023-01-06T02:07:43.000Z,10.87
2023-01-06T02:10:13.173Z,10.57
2023-01-06T02:12:41.891Z,11.37
2023-01-06T02:15:18.989Z,11.67
2023-01-06T02:18:03.990Z,12.87
2023-01-06T02:20:44.087Z,11.63
2023-01-06T02:23:50.630Z,10.57
2023-01-06T02:27:00.701Z,11.27
2023-01-06T02:29:57.391Z,10.93
2023-01-06T02:32:38.144Z,10.43
2023-01-06T02:35:22.407Z,11.87
2023-01-06T02:38:02.102Z,10.80
2023-01-06T02:40:40.576Z,10.53
2023-01-06T02:43:15.676Z,11.60
2023-01-06T02:45:50.042Z,10.83
2023-01-06T02:48:27.927Z,10.47
2023-01-06T02:50:59.249Z,10.10
2023-01-06T02:53:34.970Z,10.00
2023-01-06T02:56:03.682Z,10.13
2023-01-06T02:58:34.707Z,10.53
2023-01-06T03:01:10.852Z,10.47
2023-01-06T03:03:42.743Z,10.80
2023-01-06T03:06:15.016Z,11.07
2023-01-06T03:08:45.204Z,12.87
2023-01-06T03:11:13.436Z,11.50
2023-01-06T03:13:44.139Z,12.73
2023-01-06T03:16:13.114Z,12.27
2023-01-06T03:22:45.055Z,12.73
2023-01-06T03:25:13.340Z,14.00
2023-01-06T03:27:42.094Z,13.23
2023-01-06T03:30:12.474Z,14.07
2023-01-06T03:32:48.861Z,12.20
2023-01-06T03:35:28.175Z,12.93
2023-01-06T03:38:02.266Z,12.07
2023-01-06T03:40:34.283Z,13.10
2023-01-06T03:43:16.462Z,12.17
2023-01-06T03:45:54.128Z,13.70
2023-01-06T03:48:34.156Z,13.67
2023-01-06T03:51:06.722Z,13.40
2023-01-06T03:53:38.538Z,14.50
2023-01-06T03:56:13.166Z,15.87
2023-01-06T03:58:41.575Z,16.03
2023-01-06T04:01:11.778Z,15.83
2023-01-06T04:03:39.834Z,15.87
2023-01-06T04:06:07.745Z,18.13
2023-01-06T04:08:36.764Z,18.10
2023-01-06T04:11:05.170Z,15.50
2023-01-06T04:13:33.029Z,16.93
2023-01-06T04:16:01.463Z,18.00
2023-01-06T04:18:29.100Z,16.67
2023-01-06T04:20:56.855Z,17.77
2023-01-06T04:23:32.817Z,17.23
2023-01-06T04:26:03.146Z,18.50
2023-01-06T04:28:36.565Z,17.30
2023-01-06T04:31:04.515Z,17.70
2023-01-06T04:33:35.170Z,17.10
2023-01-06T04:36:06.548Z,17.83
2023-01-06T04:38:35.469Z,17.90
2023-01-06T04:41:04.584Z,17.43
2023-01-06T04:43:32.232Z,18.67
2023-01-06T04:46:00.107Z,18.30
2023-01-06T04:48:27.719Z,17.57
2023-01-06T04:51:01.345Z,16.70
2023-01-06T04:53:29.163Z,19.37
2023-01-06T04:55:56.750Z,18.37
2023-01-06T04:58:25.717Z,19.40
2023-01-06T05:01:00.707Z,19.57
2023-01-06T05:03:28.563Z,19.67
2023-01-06T05:05:56.280Z,19.97
2023-01-06T05:08:24.222Z,20.30
2023-01-06T05:10:51.899Z,20.70
2023-01-06T05:13:19.504Z,20.50
2023-01-06T05:15:48.447Z,20.70
2023-01-06T05:18:16.046Z,21.80
2023-01-06T05:20:43.745Z,21.20
2023-01-06T05:23:11.349Z,23.50
2023-01-06T05:25:38.960Z,21.47
2023-01-06T05:28:06.555Z,23.07
2023-01-06T05:30:34.141Z,22.17
2023-01-06T05:33:03.280Z,23.50
2023-01-06T05:35:30.913Z,21.20
2023-01-06T05:37:58.640Z,24.77
2023-01-06T05:40:26.387Z,24.40
2023-01-06T05:42:55.591Z,25.80
2023-01-06T05:45:23.775Z,22.97
2023-01-06T05:47:51.704Z,22.17
2023-01-06T05:50:20.632Z,21.93
2023-01-06T05:52:51.334Z,22.13
2023-01-06T05:55:19.042Z,23.83
2023-01-06T05:57:46.909Z,23.87
2023-01-06T06:00:15.470Z,20.80
2023-01-06T06:02:43.315Z,20.80
2023-01-06T06:05:11.112Z,22.30
2023-01-06T06:07:40.204Z,22.47
2023-01-06T06:10:09.326Z,21.77
2023-01-06T06:12:37.080Z,23.03
2023-01-06T06:15:05.341Z,19.37
2023-01-06T06:17:33.132Z,22.17
2023-01-06T06:20:00.744Z,21.97
2023-01-06T06:22:28.427Z,20.73
2023-01-06T06:24:57.753Z,22.60
2023-01-06T06:27:25.389Z,20.77
2023-01-06T06:29:53.125Z,21.73
2023-01-06T06:32:20.983Z,23.50
2023-01-06T06:34:48.583Z,22.37
2023-01-06T06:37:16.208Z,21.93
2023-01-06T06:39:43.784Z,24.57
2023-01-06T06:42:12.840Z,24.47
2023-01-06T06:44:40.543Z,24.30
2023-01-06T06:47:08.538Z,22.13
2023-01-06T06:49:36.118Z,23.00
2023-01-06T06:52:03.708Z,27.60
2023-01-06T06:54:31.337Z,29.60
2023-01-06T06:57:00.925Z,22.90
2023-01-06T06:59:29.889Z,25.20
2023-01-06T07:01:57.708Z,22.73
2023-01-06T07:04:25.376Z,24.90
2023-01-06T07:06:53.074Z,21.27
2023-01-06T07:09:20.650Z,22.40
2023-01-06T07:11:48.218Z,23.90
2023-01-06T07:14:15.879Z,22.97
2023-01-06T07:16:44.877Z,23.67
2023-01-06T07:19:12.607Z,20.80
2023-01-06T07:21:40.295Z,22.00
2023-01-06T07:24:08.896Z,22.17
2023-01-06T07:26:36.539Z,22.20
2023-01-06T07:29:04.383Z,19.57
2023-01-06T07:31:32.153Z,21.00
2023-01-06T07:34:01.231Z,18.53
2023-01-06T07:36:28.912Z,21.00
2023-01-06T07:38:56.600Z,20.07
2023-01-06T07:41:24.203Z,19.27
2023-01-06T07:43:51.935Z,19.83
2023-01-06T07:46:19.580Z,20.13
2023-01-06T07:48:47.534Z,18.07
2023-01-06T07:51:16.625Z,17.93
2023-01-06T07:53:44.361Z,18.60
2023-01-06T07:56:12.092Z,18.57
2023-01-06T07:58:39.949Z,19.60
2023-01-06T08:01:08.187Z,19.43
2023-01-06T08:03:36.013Z,19.93
2023-01-06T08:06:07.774Z,19.13
2023-01-06T08:08:38.274Z,20.33
2023-01-06T08:11:06.599Z,19.17
2023-01-06T08:13:35.187Z,20.17
2023-01-06T08:16:05.500Z,21.13
2023-01-06T08:18:33.409Z,19.70
2023-01-06T08:21:01.976Z,20.03
2023-01-06T08:23:29.695Z,17.23
2023-01-06T08:26:04.132Z,18.40
2023-01-06T08:28:32.136Z,17.73
2023-01-06T08:31:00.381Z,15.77
2023-01-06T08:33:28.978Z,17.17
2023-01-06T08:35:59.727Z,14.40
2023-01-06T08:38:29.531Z,12.47
2023-01-06T08:41:00.999Z,12.77
2023-01-06T08:43:31.551Z,12.57
2023-01-06T08:46:00.600Z,11.67
2023-01-06T08:48:28.929Z,10.93
2023-01-06T08:50:56.675Z,10.00
2023-01-06T08:53:24.295Z,10.43
2023-01-06T08:55:51.903Z,10.40
2023-01-06T08:58:19.663Z,9.73
2023-01-06T09:00:48.784Z,9.77
2023-01-06T09:03:16.781Z,9.73
2023-01-06T09:05:44.573Z,10.83
2023-01-06T09:08:12.219Z,8.80
2023-01-06T09:10:40.459Z,9.93
2023-01-06T09:13:08.632Z,8.60
2023-01-06T09:15:40.916Z,8.30
2023-01-06T09:18:11.028Z,8.40
2023-01-06T09:20:38.800Z,9.53
2023-01-06T09:23:06.392Z,9.27
2023-01-06T09:25:34.152Z,8.33
2023-01-06T09:28:01.702Z,9.03
2023-01-06T09:30:29.297Z,9.77
2023-01-06T09:32:56.911Z,8.47
2023-01-06T09:35:25.815Z,8.30
2023-01-06T09:37:53.486Z,7.33
2023-01-06T09:40:25.898Z,6.73
2023-01-06T09:43:02.517Z,6.90
2023-01-06T09:45:36.200Z,7.97
2023-01-06T09:48:05.281Z,7.10
2023-01-06T09:50:36.942Z,6.77
2023-01-06T09:53:07.938Z,6.20
2023-01-06T09:55:38.139Z,7.13
2023-01-06T09:58:07.680Z,5.73
2023-01-06T10:00:38.015Z,7.00
2023-01-06T10:03:06.631Z,6.27
2023-01-06T10:05:39.899Z,5.70
2023-01-06T10:08:16.531Z,5.60
2023-01-06T10:10:50.622Z,5.20
2023-01-06T10:13:35.325Z,5.77
2023-01-06T10:16:10.168Z,5.70
2023-01-06T10:18:44.035Z,5.50
2023-01-06T10:21:19.063Z,5.30
2023-01-06T10:23:55.788Z,4.77
2023-01-06T10:26:28.506Z,5.43
2023-01-06T10:29:01.019Z,5.40
2023-01-06T10:31:35.167Z,5.20
2023-01-06T10:34:03.665Z,5.70
2023-01-06T10:36:34.486Z,5.20
2023-01-06T10:39:07.223Z,5.43
2023-01-06T10:41:42.583Z,5.00
2023-01-06T10:44:11.682Z,5.33
2023-01-06T10:46:39.591Z,5.57
2023-01-06T10:49:11.513Z,5.97
2023-01-06T10:51:42.382Z,5.37
2023-01-06T10:54:12.158Z,5.80
2023-01-06T10:56:41.207Z,5.40
2023-01-06T10:59:10.356Z,5.03
2023-01-06T11:01:51.032Z,5.27
2023-01-06T11:04:20.027Z,5.50
2023-01-06T11:06:52.398Z,4.97
2023-01-06T11:09:32.795Z,5.50
2023-01-06T11:12:03.245Z,5.00
2023-01-06T11:14:32.687Z,5.17
2023-01-06T11:17:02.495Z,4.50
2023-01-06T11:19:38.427Z,3.47
2023-01-06T11:22:35.697Z,3.67
2023-01-06T11:25:05.305Z,2.20
2023-01-06T11:27:32.924Z,2.43
2023-01-06T11:30:21.594Z,2.80
2023-01-06T11:32:49.284Z,3.20
2023-01-06T11:35:20.237Z,2.00
2023-01-06T11:37:49.237Z,2.17
2023-01-06T11:40:19.400Z,1.83
2023-01-06T11:42:49.461Z,1.43
2023-01-06T11:45:31.347Z,1.70
2023-01-06T11:47:59.150Z,1.33
2023-01-06T11:50:26.967Z,1.00
2023-01-06T11:53:01.405Z,1.57
2023-01-06T11:55:30.587Z,0.93
2023-01-06T11:58:01.364Z,0.87
2023-01-06T12:00:38.064Z,1.10
2023-01-06T12:03:11.696Z,1.30
2023-01-06T12:05:46.005Z,1.10
2023-01-06T12:08:19.927Z,2.10
2023-01-06T12:10:50.348Z,1.23
2023-01-06T12:13:18.049Z,1.30
2023-01-06T12:15:48.125Z,1.00
2023-01-06T12:18:18.520Z,0.93
2023-01-06T12:20:48.908Z,1.37
2023-01-06T12:23:23.189Z,1.60
2023-01-06T12:25:52.379Z,1.10
2023-01-06T12:28:22.442Z,1.20
2023-01-06T12:30:54.681Z,1.67
2023-01-06T12:33:26.165Z,1.43
2023-01-06T12:35:56.572Z,2.10
2023-01-06T12:38:36.050Z,1.40
2023-01-06T12:41:06.500Z,1.47
2023-01-06T12:43:35.682Z,1.13
2023-01-06T12:46:06.755Z,1.30
2023-01-06T12:48:38.571Z,2.20
2023-01-06T12:51:09.744Z,1.50
2023-01-06T12:53:41.277Z,1.17
2023-01-06T12:56:23.074Z,1.80
2023-01-06T12:58:58.269Z,1.37
2023-01-06T13:01:31.686Z,1.77
2023-01-06T13:04:42.311Z,1.73
2023-01-06T13:07:12.949Z,1.67
2023-01-06T13:09:55.853Z,1.60
2023-01-06T13:12:47.766Z,2.17
2023-01-06T13:15:19.891Z,0.80
2023-01-06T13:17:54.279Z,1.13
2023-01-06T13:20:24.524Z,1.37
2023-01-06T13:22:59.028Z,1.73
2023-01-06T13:25:40.375Z,1.37
2023-01-06T13:28:17.095Z,2.03
2023-01-06T13:31:18.009Z,1.37
2023-01-06T13:34:11.945Z,1.30
2023-01-06T13:36:53.438Z,1.37
2023-01-06T13:39:24.362Z,1.63
2023-01-06T13:41:55.938Z,1.80
2023-01-06T13:44:26.120Z,2.10
2023-01-06T13:46:55.429Z,1.93
2023-01-06T13:49:23.357Z,1.50
2023-01-06T13:51:51.377Z,1.90
2023-01-06T13:55:09.431Z,1.47
2023-01-06T13:57:40.974Z,1.73
2023-01-06T14:00:18.021Z,1.50
2023-01-06T14:03:04.208Z,1.63
2023-01-06T14:06:00.538Z,1.60
2023-01-06T14:08:32.069Z,1.87
2023-01-06T14:11:05.348Z,1.70
2023-01-06T14:13:38.914Z,1.63
2023-01-06T14:16:08.587Z,1.63
2023-01-06T14:18:42.254Z,1.77
2023-01-06T14:21:23.162Z,1.33
2023-01-06T14:23:53.812Z,1.50
2023-01-06T14:26:21.767Z,1.63
2023-01-06T14:28:50.712Z,1.90
2023-01-06T14:31:51.325Z,2.33
2023-01-06T14:34:19.751Z,1.80
2023-01-06T14:36:50.663Z,1.40
2023-01-06T14:39:25.509Z,1.80
2023-01-06T14:42:00.364Z,1.60
2023-01-06T14:44:32.265Z,1.20
2023-01-06T14:47:03.445Z,1.70
2023-01-06T14:49:35.838Z,1.50
2023-01-06T14:52:09.717Z,1.50
2023-01-06T14:54:38.896Z,2.73
2023-01-06T14:57:06.858Z,1.40
2023-01-06T14:59:35.919Z,1.67
2023-01-06T15:02:09.900Z,1.67
2023-01-06T15:04:37.589Z,1.60
2023-01-06T15:07:17.987Z,2.10
2023-01-06T15:09:45.798Z,3.13
2023-01-06T15:12:31.886Z,1.47
2023-01-06T15:15:15.006Z,1.60
2023-01-06T15:17:42.810Z,1.53
2023-01-06T15:20:14.130Z,1.83
2023-01-06T15:22:42.732Z,2.23
2023-01-06T15:25:19.771Z,1.63
2023-01-06T15:27:49.135Z,1.53
2023-01-06T15:30:20.401Z,2.10
2023-01-06T15:32:48.713Z,1.93
2023-01-06T15:35:20.737Z,2.47
2023-01-06T15:37:48.717Z,2.10
2023-01-06T15:40:20.150Z,1.90
2023-01-06T15:42:49.000Z,1.93
2023-01-06T15:45:26.941Z,1.80
2023-01-06T15:47:55.589Z,1.40
2023-01-06T15:50:25.535Z,2.03
2023-01-06T15:52:54.439Z,1.93
2023-01-06T15:55:25.853Z,2.10
2023-01-06T15:57:58.481Z,1.73
2023-01-06T16:00:28.686Z,2.20
2023-01-06T16:02:56.561Z,1.73
2023-01-06T16:05:40.294Z,1.90
2023-01-06T16:08:17.867Z,1.80
2023-01-06T16:10:46.176Z,1.80
2023-01-06T16:13:17.808Z,1.63
2023-01-06T16:15:48.613Z,1.83
2023-01-06T16:18:17.100Z,1.70
2023-01-06T16:20:44.930Z,2.77
2023-01-06T16:23:26.195Z,1.73
2023-01-06T16:26:04.157Z,2.73
2023-01-06T16:28:31.911Z,3.43
2023-01-06T16:31:08.935Z,3.83
2023-01-06T16:33:40.348Z,3.67
2023-01-06T16:36:15.912Z,3.53
2023-01-06T16:38:43.565Z,2.90
2023-01-06T16:41:15.687Z,4.70
2023-01-06T16:43:43.485Z,2.93
2023-01-06T16:46:16.736Z,3.00
2023-01-06T16:48:44.516Z,3.70
2023-01-06T16:51:18.760Z,2.30
2023-01-06T16:53:47.309Z,3.27
2023-01-06T16:56:22.787Z,2.33
2023-01-06T16:58:51.027Z,3.30
2023-01-06T17:01:21.760Z,2.30
2023-01-06T17:03:53.371Z,2.60
2023-01-06T17:06:22.487Z,2.70
2023-01-06T17:08:51.003Z,2.50
2023-01-06T17:11:20.071Z,2.67
2023-01-06T17:13:53.028Z,2.60
2023-01-06T17:16:27.073Z,3.23
2023-01-06T17:18:59.250Z,3.40
2023-01-06T17:21:30.459Z,2.70
2023-01-06T17:23:59.806Z,3.03
2023-01-06T17:26:28.006Z,2.50
2023-01-06T17:28:58.192Z,3.37
2023-01-06T17:31:33.886Z,2.90
2023-01-06T17:34:10.165Z,3.07
2023-01-06T17:36:39.581Z,3.10
2023-01-06T17:39:15.800Z,3.50
2023-01-06T17:41:43.713Z,3.83
2023-01-06T17:44:15.918Z,3.90
2023-01-06T17:46:45.706Z,3.77
2023-01-06T17:49:32.196Z,4.07
2023-01-06T17:52:00.188Z,3.50
2023-01-06T17:54:45.523Z,3.40
2023-01-06T17:57:14.425Z,3.23
2023-01-06T17:59:42.591Z,3.83
2023-01-06T18:02:25.997Z,3.13
2023-01-06T18:04:53.655Z,3.43
2023-01-06T18:07:21.425Z,3.43
2023-01-06T18:09:49.021Z,4.23
2023-01-06T18:12:17.880Z,3.20
2023-01-06T18:14:46.477Z,3.90
2023-01-06T18:17:23.071Z,3.03
2023-01-06T18:19:50.902Z,3.20
2023-01-06T18:22:21.297Z,3.10
2023-01-06T18:24:49.947Z,3.73
2023-01-06T18:27:23.905Z,3.00
2023-01-06T18:29:52.208Z,3.47
2023-01-06T18:32:31.154Z,3.50
2023-01-06T18:34:59.977Z,3.73
2023-01-06T18:37:29.209Z,3.90
2023-01-06T18:40:02.280Z,4.37
2023-01-06T18:42:32.161Z,3.20
2023-01-06T18:45:15.029Z,3.90
2023-01-06T18:47:44.621Z,3.77
2023-01-06T18:50:32.134Z,2.87
2023-01-06T18:53:01.752Z,3.03
2023-01-06T18:55:35.817Z,3.07
2023-01-06T18:58:08.872Z,2.97
2023-01-06T19:00:39.616Z,2.67
2023-01-06T19:03:24.387Z,2.87
2023-01-06T19:05:53.482Z,2.50
2023-01-06T19:08:24.259Z,2.83
2023-01-06T19:10:51.870Z,3.30
2023-01-06T19:13:20.574Z,5.67
2023-01-06T19:15:48.303Z,6.00
2023-01-06T19:18:19.683Z,43.07
2023-01-06T19:20:47.813Z,55.17
2023-01-06T19:23:19.485Z,24.00
2023-01-06T19:25:48.572Z,4.27
2023-01-06T19:28:21.049Z,10.47
2023-01-06T19:30:51.012Z,4.40
2023-01-06T19:33:44.575Z,8.20
2023-01-06T19:36:33.550Z,3.90
2023-01-06T19:39:03.030Z,3.80
2023-01-06T19:41:33.379Z,3.90
2023-01-06T19:44:06.492Z,3.10
2023-01-06T19:46:38.498Z,3.83
2023-01-06T19:49:13.322Z,3.30
2023-01-06T19:51:40.888Z,2.90
2023-01-06T19:54:18.242Z,2.93
2023-01-06T19:56:45.852Z,3.10
2023-01-06T19:59:17.135Z,3.97
2023-01-06T20:01:45.528Z,3.30
2023-01-06T20:04:19.207Z,2.63
2023-01-06T20:06:46.818Z,3.00
2023-01-06T20:09:14.709Z,3.00
2023-01-06T20:11:43.049Z,3.10
2023-01-06T20:14:11.075Z,3.47
2023-01-06T20:16:38.786Z,3.70
2023-01-06T20:19:06.521Z,4.17
2023-01-06T20:21:37.571Z,2.97
2023-01-06T20:24:05.920Z,2.70
2023-01-06T20:26:34.447Z,3.50
2023-01-06T20:29:02.286Z,3.97
2023-01-06T20:31:29.921Z,3.57
2023-01-06T20:33:57.632Z,3.63
2023-01-06T20:36:25.436Z,3.63
2023-01-06T20:38:54.389Z,3.13
2023-01-06T20:41:22.035Z,3.60
2023-01-06T20:43:49.852Z,3.80
2023-01-06T20:46:17.610Z,4.37
2023-01-06T20:48:45.234Z,3.50
2023-01-06T20:51:12.888Z,3.60
2023-01-06T20:53:40.554Z,3.27
2023-01-06T20:56:09.747Z,4.67
2023-01-06T20:58:37.460Z,4.30
2023-01-06T21:01:05.479Z,4.10
2023-01-06T21:03:33.212Z,4.30
2023-01-06T21:06:01.307Z,3.63
2023-01-06T21:08:28.895Z,3.23
2023-01-06T21:10:56.546Z,4.63
2023-01-06T21:13:25.543Z,5.00
2023-01-06T21:15:53.214Z,4.07
2023-01-06T21:18:20.805Z,3.10
2023-01-06T21:20:49.355Z,3.60
2023-01-06T21:23:17.058Z,3.50
2023-01-06T21:25:44.743Z,3.90
2023-01-06T21:28:12.743Z,4.07
2023-01-06T21:30:41.816Z,5.70
2023-01-06T21:33:09.649Z,22.00
2023-01-06T21:35:37.265Z,6.50
2023-01-06T21:38:05.642Z,5.03
2023-01-06T21:40:33.282Z,4.20
2023-01-06T21:43:09.352Z,4.53
2023-01-06T21:45:37.380Z,4.87
2023-01-06T21:48:07.086Z,4.40
2023-01-06T21:50:37.960Z,5.50
2023-01-06T21:53:05.776Z,5.33
2023-01-06T21:55:33.494Z,10.17
2023-01-06T21:58:01.730Z,22.57
2023-01-06T22:00:29.576Z,10.00
2023-01-06T22:02:57.250Z,7.30
2023-01-06T22:05:26.387Z,6.10
2023-01-06T22:07:54.303Z,5.60
2023-01-06T22:10:23.238Z,6.13
2023-01-06T22:12:52.695Z,5.33
2023-01-06T22:15:21.087Z,5.20
2023-01-06T22:17:49.200Z,8.47
2023-01-06T22:20:17.792Z,5.43
2023-01-06T22:22:47.201Z,7.00
2023-01-06T22:25:14.832Z,6.77
2023-01-06T22:27:42.448Z,6.90
2023-01-06T22:30:11.197Z,5.63
2023-01-06T22:32:45.348Z,6.17
2023-01-06T22:35:13.456Z,6.70
2023-01-06T22:37:41.114Z,6.33
2023-01-06T22:40:12.424Z,6.00
2023-01-06T22:42:40.041Z,6.07
2023-01-06T22:45:08.790Z,6.33
2023-01-06T22:47:36.413Z,7.27
2023-01-06T22:50:04.489Z,12.03
2023-01-06T22:52:32.147Z,6.90
2023-01-06T22:54:59.828Z,7.00
2023-01-06T22:57:29.432Z,8.30
2023-01-06T22:59:58.317Z,7.53
2023-01-06T23:02:26.338Z,7.30
2023-01-06T23:04:54.332Z,6.10
2023-01-06T23:07:22.211Z,5.90
2023-01-06T23:09:49.871Z,5.87
2023-01-06T23:12:17.457Z,5.50
2023-01-06T23:14:46.479Z,5.60
2023-01-06T23:17:14.098Z,5.77
2023-01-06T23:19:41.828Z,42.27
2023-01-06T23:22:09.539Z,20.73
2023-01-06T23:24:37.175Z,32.87
2023-01-06T23:27:04.915Z,42.37
2023-01-06T23:29:32.667Z,64.83
2023-01-06T23:32:01.738Z,8.67
2023-01-06T23:34:29.642Z,6.43
2023-01-06T23:36:57.381Z,6.20
2023-01-06T23:39:25.582Z,5.63
2023-01-06T23:41:55.024Z,6.60
2023-01-06T23:44:22.603Z,6.20
2023-01-06T23:46:50.394Z,7.80
2023-01-06T23:49:19.741Z,10.77
2023-01-06T23:51:47.407Z,15.53
2023-01-06T23:54:15.584Z,12.77
2023-01-06T23:56:43.381Z,7.40
2023-01-06T23:59:13.098Z,6.70
